Time;durP1;ratioP1;P1;durP2;ratioP2;P2;SDS_P1;SDS_P2;PMS_P1;PMS_P2;Temp;Humidity;BMP_temperature;BMP_pressure;BME280_temperature;BME280_humidity;BME280_pressure;Samples;Min_cycle;Max_cycle;Signal;HPM_P1;HPM_P2
2023/10/16 00:01:11;;;;;;;3.05;1.33;;;8.30;99.90;;;;;;5042910;28;20080;-83
2023/10/16 00:03:41;;;;;;;3.65;0.98;;;8.30;99.90;;;;;;5044239;28;20412;-83
2023/10/16 00:06:12;;;;;;;3.38;1.20;;;8.30;99.90;;;;;;5052704;28;20040;-80
2023/10/16 00:09:10;;;;;;;1.60;1.08;;;8.30;99.90;;;;;;5049731;28;20072;-82
2023/10/16 00:11:37;;;;;;;3.63;1.17;;;8.20;99.90;;;;;;5044300;28;20571;-83
2023/10/16 00:14:14;;;;;;;1.42;0.90;;;8.20;99.90;;;;;;5029421;28;20087;-83
2023/10/16 00:16:44;;;;;;;2.45;1.08;;;8.10;99.90;;;;;;5039577;28;20041;-82
2023/10/16 00:19:11;;;;;;;4.00;1.00;;;8.10;99.90;;;;;;5041721;28;20128;-82
2023/10/16 00:21:45;;;;;;;1.92;1.13;;;8.10;99.90;;;;;;5032090;28;20088;-83
2023/10/16 00:24:12;;;;;;;3.45;0.90;;;8.10;99.90;;;;;;5051757;28;20072;-83
2023/10/16 00:26:45;;;;;;;1.27;0.80;;;8.00;99.90;;;;;;5043635;28;20513;-84
2023/10/16 00:29:24;;;;;;;1.65;0.95;;;8.00;99.90;;;;;;5049569;28;20070;-83
2023/10/16 00:31:51;;;;;;;1.73;0.90;;;8.00;99.90;;;;;;5043406;28;20065;-83
2023/10/16 00:34:20;;;;;;;2.88;0.80;;;7.90;99.90;;;;;;5057297;28;20308;-80
2023/10/16 00:36:55;;;;;;;3.17;1.00;;;7.90;99.90;;;;;;5052533;28;20068;-83
2023/10/16 00:39:25;;;;;;;2.60;1.10;;;7.90;99.90;;;;;;5048898;28;20045;-83
2023/10/16 00:41:52;;;;;;;1.48;0.98;;;7.90;99.90;;;;;;5046275;28;20108;-81
2023/10/16 00:44:18;;;;;;;1.63;0.80;;;7.90;99.90;;;;;;5052016;28;20077;-83
2023/10/16 00:46:48;;;;;;;1.48;0.95;;;7.90;99.90;;;;;;5048936;28;20041;-83
2023/10/16 00:49:18;;;;;;;5.72;0.90;;;7.80;99.90;;;;;;5057619;28;20044;-80
2023/10/16 00:51:46;;;;;;;2.50;0.90;;;7.80;99.90;;;;;;5050409;28;20090;-81
2023/10/16 00:54:27;;;;;;;2.70;1.10;;;7.80;99.90;;;;;;5035377;28;20511;-81
2023/10/16 00:56:59;;;;;;;2.05;1.05;;;7.80;99.90;;;;;;5044544;28;20412;-83
2023/10/16 00:59:31;;;;;;;2.03;0.95;;;7.70;99.90;;;;;;5030069;28;20037;-82
2023/10/16 01:02:32;;;;;;;1.50;0.90;;;7.70;99.90;;;;;;5031765;28;20079;-83
2023/10/16 01:04:52;;;;;;;0.73;0.73;;;7.70;99.90;;;;;;5047640;28;20059;-82
2023/10/16 01:07:19;;;;;;;1.23;0.90;;;7.70;99.90;;;;;;5054164;28;20052;-83
2023/10/16 01:09:52;;;;;;;2.38;0.90;;;7.70;99.90;;;;;;5048642;28;20116;-83
2023/10/16 01:12:20;;;;;;;1.13;0.80;;;7.60;99.90;;;;;;5045326;28;20041;-83
2023/10/16 01:14:47;;;;;;;3.22;0.93;;;7.60;99.90;;;;;;5033170;28;20046;-82
2023/10/16 01:17:14;;;;;;;0.73;0.70;;;7.60;99.90;;;;;;5059142;28;20052;-83
2023/10/16 01:19:43;;;;;;;1.38;0.90;;;7.60;99.90;;;;;;5049671;28;20045;-83
2023/10/16 01:22:11;;;;;;;2.53;0.82;;;7.60;99.90;;;;;;5051738;28;20053;-82
2023/10/16 01:24:43;;;;;;;3.75;1.00;;;7.60;99.90;;;;;;5046077;28;20050;-81
2023/10/16 01:27:25;;;;;;;1.15;0.82;;;7.50;99.90;;;;;;5040713;28;20057;-82
2023/10/16 01:29:53;;;;;;;2.25;1.00;;;7.50;99.90;;;;;;5034627;28;20053;-82
2023/10/16 01:32:21;;;;;;;1.45;0.85;;;7.50;99.90;;;;;;5053651;28;20103;-83
2023/10/16 01:34:50;;;;;;;1.40;0.70;;;7.50;99.90;;;;;;5049811;28;20045;-83
2023/10/16 01:37:18;;;;;;;0.85;0.75;;;7.50;99.90;;;;;;5054688;28;20062;-84
2023/10/16 01:39:48;;;;;;;2.95;0.80;;;7.40;99.90;;;;;;5030838;28;20068;-83
2023/10/16 01:42:18;;;;;;;;;;;7.40;99.90;;;;;;5050164;28;20113;-84
2023/10/16 01:44:47;;;;;;;2.35;0.80;;;7.40;99.90;;;;;;5036681;28;19921;-83
2023/10/16 01:47:15;;;;;;;1.70;1.15;;;7.40;99.90;;;;;;5055652;28;20049;-81
2023/10/16 01:49:43;;;;;;;2.78;1.10;;;7.40;99.90;;;;;;5037722;28;20041;-81
2023/10/16 01:52:11;;;;;;;2.05;0.88;;;7.40;99.90;;;;;;5035631;28;20053;-80
2023/10/16 01:54:40;;;;;;;3.22;1.35;;;7.40;99.90;;;;;;5027837;28;20103;-83
2023/10/16 01:57:10;;;;;;;3.35;0.88;;;7.40;99.90;;;;;;5048183;28;20045;-83
2023/10/16 01:59:43;;;;;;;2.10;0.80;;;7.30;99.90;;;;;;5054582;28;20037;-82
2023/10/16 02:02:11;;;;;;;1.42;0.68;;;7.30;99.90;;;;;;5055802;28;20049;-81
2023/10/16 02:04:39;;;;;;;2.45;1.23;;;7.30;99.90;;;;;;5052619;28;20504;-82
2023/10/16 02:07:06;;;;;;;2.55;1.23;;;7.30;99.90;;;;;;5050826;28;20060;-81
2023/10/16 02:09:36;;;;;;;2.60;0.90;;;7.30;99.90;;;;;;5044686;28;20052;-83
2023/10/16 02:12:05;;;;;;;;;;;7.20;99.90;;;;;;5048611;28;20405;-83
2023/10/16 02:14:39;;;;;;;0.70;0.70;;;7.20;99.90;;;;;;5053715;28;19921;-81
2023/10/16 02:17:22;;;;;;;0.98;0.70;;;7.20;99.90;;;;;;5053681;28;20053;-81
2023/10/16 02:19:50;;;;;;;1.67;1.05;;;7.20;99.90;;;;;;5044851;28;20105;-83
2023/10/16 02:22:18;;;;;;;3.08;0.80;;;7.10;99.90;;;;;;5049148;28;20741;-81
2023/10/16 02:24:48;;;;;;;1.50;0.82;;;7.10;99.90;;;;;;5041991;28;20083;-83
2023/10/16 02:27:18;;;;;;;3.33;1.33;;;7.10;99.90;;;;;;5032278;28;20406;-83
2023/10/16 02:29:45;;;;;;;3.10;1.00;;;7.10;99.90;;;;;;5038299;28;20428;-82
2023/10/16 02:32:13;;;;;;;3.20;1.13;;;7.10;99.90;;;;;;5034322;28;20049;-83
2023/10/16 02:34:41;;;;;;;5.25;1.10;;;7.10;99.90;;;;;;5048604;28;20044;-81
2023/10/16 02:37:13;;;;;;;2.03;1.00;;;7.00;99.90;;;;;;5048607;28;20053;-81
2023/10/16 02:39:50;;;;;;;1.88;0.98;;;7.00;99.90;;;;;;5024546;28;20129;-82
2023/10/16 02:42:19;;;;;;;2.20;0.88;;;7.00;99.90;;;;;;5053108;28;20046;-83
2023/10/16 02:44:46;;;;;;;1.65;0.82;;;7.00;99.90;;;;;;5049754;28;20081;-82
2023/10/16 02:47:37;;;;;;;1.02;0.93;;;7.00;99.90;;;;;;5051186;28;20050;-83
2023/10/16 02:50:01;;;;;;;1.60;1.02;;;6.90;99.90;;;;;;5041532;28;20063;-83
2023/10/16 02:52:30;;;;;;;2.38;1.10;;;6.90;99.90;;;;;;5039126;28;20041;-83
2023/10/16 02:54:57;;;;;;;1.55;1.27;;;6.90;99.90;;;;;;5040714;28;20045;-84
2023/10/16 02:57:25;;;;;;;1.25;0.90;;;6.90;99.90;;;;;;5039002;28;20090;-82
2023/10/16 02:59:52;;;;;;;1.73;1.08;;;6.90;99.90;;;;;;5032029;28;20073;-83
2023/10/16 03:02:22;;;;;;;1.27;1.00;;;6.80;99.90;;;;;;5051407;28;20049;-83
2023/10/16 03:04:51;;;;;;;1.20;0.82;;;6.80;99.90;;;;;;5040410;28;20099;-84
2023/10/16 03:07:20;;;;;;;4.67;1.37;;;6.80;99.90;;;;;;5049849;28;20045;-83
2023/10/16 03:09:50;;;;;;;1.33;0.90;;;6.80;99.90;;;;;;5037424;28;20533;-82
2023/10/16 03:12:19;;;;;;;1.83;1.05;;;6.80;99.90;;;;;;5054284;28;20046;-80
2023/10/16 03:14:56;;;;;;;1.33;0.82;;;6.80;99.90;;;;;;5046999;28;20037;-83
2023/10/16 03:17:34;;;;;;;3.30;1.15;;;6.80;99.90;;;;;;5050164;28;20083;-83
2023/10/16 03:20:08;;;;;;;4.05;1.00;;;6.70;99.90;;;;;;5040188;28;20045;-82
2023/10/16 03:22:35;;;;;;;1.95;1.00;;;6.70;99.90;;;;;;5028095;28;20493;-81
2023/10/16 03:25:12;;;;;;;1.02;0.93;;;6.70;99.90;;;;;;5051430;28;20041;-82
2023/10/16 03:27:42;;;;;;;4.35;1.27;;;6.70;99.90;;;;;;5037771;28;20045;-81
2023/10/16 03:30:09;;;;;;;1.25;1.02;;;6.70;99.90;;;;;;5049443;28;20132;-84
2023/10/16 03:32:36;;;;;;;3.67;0.90;;;6.60;99.90;;;;;;5048268;28;20045;-83
2023/10/16 03:35:06;;;;;;;2.30;1.23;;;6.60;99.90;;;;;;5041128;28;20580;-80
2023/10/16 03:37:35;;;;;;;;;;;6.60;99.90;;;;;;5048271;28;20076;-81
2023/10/16 03:40:11;;;;;;;1.10;1.00;;;6.60;99.90;;;;;;5051534;28;20351;-83
2023/10/16 03:42:40;;;;;;;1.02;0.80;;;6.60;99.90;;;;;;5044990;28;20106;-84
2023/10/16 03:45:08;;;;;;;2.42;0.95;;;6.50;99.90;;;;;;5028115;28;20040;-81
2023/10/16 03:47:34;;;;;;;3.05;1.42;;;6.50;99.90;;;;;;5038072;28;20056;-82
2023/10/16 03:50:03;;;;;;;1.05;0.93;;;6.50;99.90;;;;;;5034131;28;20050;-83
2023/10/16 03:52:30;;;;;;;1.40;1.00;;;6.50;99.90;;;;;;5049806;28;20048;-81
2023/10/16 03:54:57;;;;;;;1.50;1.17;;;6.50;99.90;;;;;;5048771;28;20103;-83
2023/10/16 03:57:23;;;;;;;1.48;1.10;;;6.40;99.90;;;;;;5050227;28;20049;-82
2023/10/16 03:59:51;;;;;;;2.90;1.20;;;6.40;99.90;;;;;;5025858;28;20068;-83
2023/10/16 04:02:23;;;;;;;3.03;1.30;;;6.40;99.90;;;;;;5048069;28;20045;-83
2023/10/16 04:04:53;;;;;;;2.63;1.13;;;6.40;99.90;;;;;;5037231;28;20049;-83
2023/10/16 04:07:22;;;;;;;3.47;1.05;;;6.40;99.90;;;;;;5059672;28;20055;-85
2023/10/16 04:09:49;;;;;;;1.90;1.13;;;6.30;99.90;;;;;;5047600;28;20040;-82
2023/10/16 04:12:20;;;;;;;1.58;1.10;;;6.30;99.90;;;;;;5045415;28;20107;-83
2023/10/16 04:14:55;;;;;;;2.45;1.45;;;6.30;99.90;;;;;;5048202;28;20041;-82
2023/10/16 04:17:26;;;;;;;2.55;1.40;;;6.30;99.90;;;;;;5048654;28;20064;-82
2023/10/16 04:19:53;;;;;;;1.25;1.10;;;6.30;99.90;;;;;;5039081;28;20099;-83
2023/10/16 04:22:24;;;;;;;2.70;1.50;;;6.30;99.90;;;;;;5046406;28;20052;-82
2023/10/16 04:24:54;;;;;;;4.13;1.50;;;6.20;99.90;;;;;;5051702;28;20060;-82
2023/10/16 04:27:33;;;;;;;3.45;1.30;;;6.20;99.90;;;;;;5053281;28;20109;-83
2023/10/16 04:43:49;;;;;;;2.30;1.70;;;6.10;99.90;;;;;;5047815;28;20041;-81
2023/10/16 04:46:23;;;;;;;2.53;1.20;;;6.10;99.90;;;;;;5052638;28;20088;-82
2023/10/16 04:48:54;;;;;;;3.70;1.77;;;6.10;99.90;;;;;;5042363;28;20037;-83
2023/10/16 04:51:36;;;;;;;2.92;1.50;;;6.00;99.90;;;;;;5056371;28;20064;-84
2023/10/16 04:54:16;;;;;;;2.22;1.25;;;6.00;99.90;;;;;;5052340;28;20120;-83
2023/10/16 04:57:18;;;;;;;2.28;1.10;;;6.00;99.90;;;;;;5042720;28;20164;-82
2023/10/16 04:59:59;;;;;;;1.67;1.13;;;6.00;99.90;;;;;;5050577;28;20040;-82
2023/10/16 05:02:41;;;;;;;4.25;1.27;;;6.00;99.90;;;;;;5046864;28;20081;-83
2023/10/16 05:07:53;;;;;;;2.78;1.88;;;5.90;99.90;;;;;;5049389;28;20475;-84
2023/10/16 05:16:28;;;;;;;2.70;1.30;;;5.90;99.90;;;;;;5049925;28;20061;-83
2023/10/16 05:19:01;;;;;;;2.08;1.33;;;5.80;99.90;;;;;;5054303;28;20044;-81
2023/10/16 05:22:02;;;;;;;1.35;1.20;;;5.80;99.90;;;;;;5055765;28;20049;-83
2023/10/16 06:14:20;;;;;;;6.65;2.20;;;5.70;99.90;;;;;;5046554;28;20074;-85
2023/10/16 06:16:55;;;;;;;3.20;2.30;;;5.70;99.90;;;;;;5055704;28;20049;-83
2023/10/16 06:19:25;;;;;;;5.20;2.17;;;5.70;99.90;;;;;;5053050;28;20065;-84
2023/10/16 06:21:59;;;;;;;3.30;2.00;;;5.70;99.90;;;;;;5030596;28;20424;-82
2023/10/16 06:24:28;;;;;;;3.30;1.60;;;5.70;99.90;;;;;;5049746;28;20304;-82
2023/10/16 06:26:56;;;;;;;5.70;2.10;;;5.70;99.90;;;;;;5043352;28;20077;-82
2023/10/16 06:29:34;;;;;;;4.55;2.55;;;5.80;99.90;;;;;;5032169;28;20092;-82
2023/10/16 06:32:07;;;;;;;4.57;2.20;;;5.80;99.90;;;;;;5052662;28;20045;-83
2023/10/16 06:34:35;;;;;;;3.38;1.98;;;5.80;99.90;;;;;;5055419;28;20053;-82
2023/10/16 06:37:09;;;;;;;4.47;1.85;;;5.80;99.90;;;;;;5045220;28;20054;-81
2023/10/16 06:39:36;;;;;;;3.03;2.00;;;5.80;99.90;;;;;;5053321;28;20046;-83
2023/10/16 06:42:04;;;;;;;7.22;2.10;;;5.90;99.90;;;;;;5042215;28;20136;-80
2023/10/16 06:44:34;;;;;;;3.13;1.70;;;5.90;99.90;;;;;;5037997;28;20051;-83
2023/10/16 06:47:01;;;;;;;;;;;5.90;99.90;;;;;;5053371;28;20064;-84
2023/10/16 06:49:35;;;;;;;2.95;1.90;;;6.00;99.90;;;;;;5052990;28;20020;-84
2023/10/16 06:52:06;;;;;;;2.20;2.00;;;6.00;99.90;;;;;;5036105;28;20045;-83
2023/10/16 06:54:37;;;;;;;4.25;2.08;;;6.10;99.90;;;;;;5053248;28;20067;-84
2023/10/16 06:57:13;;;;;;;3.80;2.22;;;6.10;99.90;;;;;;5041725;28;20049;-82
2023/10/16 06:59:41;;;;;;;5.03;1.88;;;6.10;99.90;;;;;;5057998;28;20491;-84
2023/10/16 07:02:15;;;;;;;4.85;2.50;;;6.10;99.90;;;;;;5050900;28;20113;-80
2023/10/16 07:04:44;;;;;;;5.47;2.38;;;6.10;99.90;;;;;;5052966;28;20050;-81
2023/10/16 07:07:15;;;;;;;5.70;2.67;;;6.20;99.90;;;;;;5046023;28;20068;-83
2023/10/16 07:09:48;;;;;;;5.50;3.47;;;6.20;99.90;;;;;;5033999;28;20113;-82
2023/10/16 07:12:19;;;;;;;4.85;2.92;;;6.20;99.90;;;;;;5048358;28;20044;-83
2023/10/16 07:14:55;;;;;;;5.43;2.72;;;6.30;99.90;;;;;;5048249;28;20049;-83
2023/10/16 07:17:27;;;;;;;5.80;2.85;;;6.30;99.90;;;;;;5050651;28;20083;-82
2023/10/16 07:19:58;;;;;;;6.25;3.33;;;6.30;99.90;;;;;;5043449;28;20069;-83
2023/10/16 07:22:32;;;;;;;5.80;3.67;;;6.40;99.90;;;;;;5044311;28;20053;-82
2023/10/16 07:27:58;;;;;;;10.82;4.10;;;6.40;99.90;;;;;;5057577;28;20044;-82
2023/10/16 07:30:27;;;;;;;5.32;3.55;;;6.40;99.90;;;;;;5045795;28;20041;-81
2023/10/16 07:32:55;;;;;;;8.57;4.43;;;6.50;99.90;;;;;;5051234;28;20048;-84
2023/10/16 07:35:22;;;;;;;9.02;4.38;;;6.50;99.90;;;;;;5048893;28;20053;-82
2023/10/16 07:37:52;;;;;;;8.75;4.43;;;6.50;99.90;;;;;;5043801;28;20045;-84
2023/10/16 07:40:20;;;;;;;6.15;4.35;;;6.60;99.90;;;;;;5046541;28;20471;-81
2023/10/16 07:42:52;;;;;;;7.30;4.10;;;6.60;99.90;;;;;;5064419;28;20129;-83
2023/10/16 07:45:19;;;;;;;6.50;4.32;;;6.70;99.90;;;;;;5037122;28;20049;-82
2023/10/16 07:47:50;;;;;;;7.45;3.92;;;6.70;99.90;;;;;;5058182;28;20491;-83
2023/10/16 07:50:19;;;;;;;6.70;4.07;;;6.70;99.90;;;;;;5051711;28;20172;-83
2023/10/16 07:52:46;;;;;;;7.05;4.15;;;6.70;99.90;;;;;;5049274;28;20060;-84
2023/10/16 07:55:21;;;;;;;8.18;4.43;;;6.80;99.90;;;;;;5055529;28;20655;-83
2023/10/16 07:57:48;;;;;;;6.40;4.13;;;6.80;99.90;;;;;;5057638;28;20110;-81
2023/10/16 08:00:15;;;;;;;7.15;4.47;;;6.80;99.90;;;;;;5052044;28;20056;-82
2023/10/16 08:02:45;;;;;;;6.43;3.75;;;6.90;99.90;;;;;;5058705;28;20050;-83
2023/10/16 08:05:15;;;;;;;6.95;4.10;;;6.90;99.90;;;;;;5048176;28;20041;-82
2023/10/16 08:07:46;;;;;;;6.43;3.83;;;6.90;99.90;;;;;;5053020;28;20462;-83
2023/10/16 08:10:41;;;;;;;7.30;3.67;;;6.90;99.90;;;;;;5039286;28;20053;-81
2023/10/16 08:13:11;;;;;;;6.05;3.80;;;7.00;99.90;;;;;;5055997;28;20049;-82
2023/10/16 08:15:51;;;;;;;6.20;4.03;;;7.00;99.90;;;;;;5053536;28;20112;-84
2023/10/16 08:18:19;;;;;;;6.95;4.10;;;7.00;99.90;;;;;;5055420;28;20049;-84
2023/10/16 08:20:49;;;;;;;7.30;3.83;;;7.10;99.90;;;;;;5043774;28;20522;-81
2023/10/16 08:23:17;;;;;;;5.35;3.95;;;7.10;99.90;;;;;;5033051;28;20049;-81
2023/10/16 08:25:46;;;;;;;8.60;4.55;;;7.10;99.90;;;;;;5037415;28;20048;-83
2023/10/16 08:28:20;;;;;;;6.57;3.97;;;7.20;99.90;;;;;;5034186;28;20060;-82
2023/10/16 08:33:19;;;;;;;7.65;4.88;;;7.20;99.90;;;;;;5052058;28;20049;-83
2023/10/16 08:35:46;;;;;;;7.38;3.38;;;7.20;99.90;;;;;;5040685;28;20060;-83
2023/10/16 08:40:44;;;;;;;5.65;2.97;;;7.30;99.90;;;;;;5054125;28;20085;-83
2023/10/16 08:43:17;;;;;;;6.18;3.42;;;7.40;99.90;;;;;;5035395;28;20055;-83
2023/10/16 08:45:48;;;;;;;10.00;5.07;;;7.40;99.90;;;;;;5050806;28;20429;-83
2023/10/16 08:48:19;;;;;;;12.20;4.85;;;7.40;99.90;;;;;;5050699;28;20097;-82
2023/10/16 08:50:52;;;;;;;8.98;5.40;;;7.30;99.90;;;;;;5048056;28;20049;-83
2023/10/16 08:53:32;;;;;;;7.63;4.38;;;7.20;99.90;;;;;;5054321;28;20117;-84
2023/10/16 08:56:03;;;;;;;8.95;5.03;;;7.30;99.90;;;;;;5033795;28;20060;-82
2023/10/16 08:58:34;;;;;;;9.40;4.57;;;7.30;99.90;;;;;;5052074;28;20103;-83
2023/10/16 09:01:07;;;;;;;10.45;5.03;;;7.40;99.90;;;;;;5045057;28;20056;-81
2023/10/16 09:03:40;;;;;;;7.93;4.63;;;7.40;99.90;;;;;;5050042;28;20057;-82
2023/10/16 09:06:07;;;;;;;7.15;4.30;;;7.40;99.90;;;;;;5043403;28;20056;-81
2023/10/16 09:08:35;;;;;;;6.03;3.75;;;7.50;99.90;;;;;;5055711;28;20049;-83
2023/10/16 09:11:08;;;;;;;7.13;4.63;;;7.50;99.90;;;;;;5033299;28;20051;-83
2023/10/16 09:13:35;;;;;;;7.22;3.70;;;7.50;99.90;;;;;;5032379;28;20060;-83
2023/10/16 09:16:13;;;;;;;5.53;2.80;;;7.60;99.90;;;;;;5048342;28;20182;-81
2023/10/16 09:18:42;;;;;;;3.95;2.50;;;7.60;99.90;;;;;;5048805;28;20045;-83
2023/10/16 09:21:22;;;;;;;7.18;2.90;;;7.70;99.90;;;;;;5045943;28;20051;-83
2023/10/16 09:23:51;;;;;;;3.38;2.65;;;7.70;99.90;;;;;;5054232;28;20637;-83
2023/10/16 09:26:28;;;;;;;10.10;2.55;;;7.80;99.90;;;;;;5069761;28;20100;-81
2023/10/16 09:29:04;;;;;;;3.95;2.78;;;7.80;99.90;;;;;;5030708;28;20080;-83
2023/10/16 09:31:32;;;;;;;4.32;2.15;;;7.90;99.90;;;;;;5047316;28;20132;-83
2023/10/16 09:34:00;;;;;;;5.05;2.03;;;7.90;99.90;;;;;;5040410;28;20592;-83
2023/10/16 09:36:29;;;;;;;6.10;2.83;;;8.00;99.90;;;;;;5039855;28;20064;-84
2023/10/16 09:38:59;;;;;;;4.63;2.90;;;8.00;99.90;;;;;;5048479;28;20044;-83
2023/10/16 09:44:07;;;;;;;5.20;2.45;;;8.10;99.90;;;;;;5051016;28;20417;-83
2023/10/16 09:49:15;;;;;;;5.65;1.90;;;8.10;99.90;;;;;;5051030;28;20037;-81
2023/10/16 09:51:46;;;;;;;3.30;1.90;;;8.20;99.90;;;;;;5053408;28;20064;-83
2023/10/16 09:54:15;;;;;;;4.90;1.95;;;8.30;99.90;;;;;;5048253;28;20049;-83
2023/10/16 09:56:44;;;;;;;4.30;1.92;;;8.40;99.90;;;;;;5051447;28;20127;-82
2023/10/16 09:59:22;;;;;;;5.00;2.00;;;8.40;99.90;;;;;;5047158;28;20467;-81
2023/10/16 10:01:51;;;;;;;5.20;2.28;;;8.50;99.90;;;;;;5034414;28;20119;-83
2023/10/16 10:04:24;;;;;;;3.85;2.00;;;8.50;99.90;;;;;;5049094;28;20457;-83
2023/10/16 10:06:55;;;;;;;3.67;1.60;;;8.60;99.90;;;;;;5057118;28;20047;-83
2023/10/16 10:12:42;;;;;;;5.43;2.00;;;8.60;99.90;;;;;;4999166;28;20124;-82
2023/10/16 10:15:29;;;;;;;4.13;2.00;;;8.70;99.90;;;;;;5039177;28;20041;-82
2023/10/16 10:18:02;;;;;;;4.20;1.98;;;8.70;99.90;;;;;;5052464;28;20102;-83
2023/10/16 10:20:32;;;;;;;3.22;2.22;;;8.70;99.90;;;;;;5052801;28;20487;-83
2023/10/16 10:23:05;;;;;;;2.95;2.08;;;8.70;99.90;;;;;;5052818;28;20040;-83
2023/10/16 10:25:35;;;;;;;4.60;2.05;;;8.80;99.90;;;;;;5045770;28;20041;-81
2023/10/16 10:28:10;;;;;;;4.93;2.13;;;8.80;99.90;;;;;;5029186;28;20120;-81
2023/10/16 10:30:43;;;;;;;5.40;2.17;;;8.80;99.90;;;;;;5042515;28;20409;-83
2023/10/16 10:33:33;;;;;;;3.78;2.53;;;8.80;99.90;;;;;;5054068;28;20041;-83
2023/10/16 10:36:28;;;;;;;3.95;2.58;;;8.90;99.90;;;;;;5035009;28;20112;-83
2023/10/16 10:39:20;;;;;;;5.13;2.47;;;8.90;99.90;;;;;;5042403;28;20052;-83
2023/10/16 10:41:54;;;;;;;3.70;2.13;;;8.90;99.90;;;;;;5048599;28;20055;-83
2023/10/16 10:44:43;;;;;;;6.97;2.30;;;9.00;99.90;;;;;;5043597;28;20049;-82
2023/10/16 10:47:24;;;;;;;5.63;2.13;;;9.00;99.90;;;;;;5053125;28;20106;-81
2023/10/16 10:49:53;;;;;;;3.50;2.30;;;9.00;99.90;;;;;;5058906;28;20068;-85
2023/10/16 10:52:21;;;;;;;3.72;2.80;;;9.10;99.90;;;;;;5053086;28;20087;-80
2023/10/16 10:55:18;;;;;;;4.47;2.28;;;9.10;99.90;;;;;;5056246;28;20087;-78
2023/10/16 10:57:47;;;;;;;4.63;2.28;;;9.20;99.90;;;;;;5034937;28;20054;-80
2023/10/16 11:00:43;;;;;;;7.35;3.00;;;9.20;99.90;;;;;;5048432;28;20040;-81
2023/10/16 11:03:22;;;;;;;4.55;2.20;;;9.30;99.90;;;;;;5055463;28;20072;-82
2023/10/16 11:05:50;;;;;;;3.40;2.63;;;9.30;99.90;;;;;;5061562;28;20106;-84
2023/10/16 11:08:17;;;;;;;5.40;2.45;;;9.40;99.90;;;;;;5053679;28;20070;-83
2023/10/16 11:10:47;;;;;;;6.55;2.67;;;9.40;99.90;;;;;;5038594;28;20065;-84
2023/10/16 11:13:16;;;;;;;3.00;2.00;;;9.40;99.90;;;;;;5056111;28;20101;-84
2023/10/16 11:15:54;;;;;;;4.22;2.15;;;9.50;99.90;;;;;;5062616;28;20049;-84
2023/10/16 11:18:26;;;;;;;4.72;2.08;;;9.50;99.90;;;;;;5060899;28;20075;-84
2023/10/16 11:21:04;;;;;;;8.40;3.47;;;9.50;99.90;;;;;;5063428;28;20076;-83
2023/10/16 11:23:32;;;;;;;5.07;2.47;;;9.60;99.90;;;;;;5054864;28;20045;-84
2023/10/16 11:26:00;;;;;;;6.00;2.78;;;9.60;99.90;;;;;;5040027;28;20504;-84
2023/10/16 11:28:31;;;;;;;7.15;2.70;;;9.60;99.90;;;;;;5036432;28;20046;-83
2023/10/16 11:31:00;;;;;;;4.57;2.70;;;9.60;99.90;;;;;;5069206;28;20072;-84
2023/10/16 11:33:34;;;;;;;6.70;2.65;;;9.60;99.90;;;;;;5059762;28;20076;-83
2023/10/16 11:36:03;;;;;;;9.35;2.70;;;9.70;99.90;;;;;;5061263;28;20040;-83
2023/10/16 11:38:32;;;;;;;6.97;4.30;;;9.70;99.90;;;;;;5052531;28;20041;-84
2023/10/16 11:41:06;;;;;;;7.93;2.78;;;9.70;99.90;;;;;;5056328;28;20053;-83
2023/10/16 11:43:39;;;;;;;4.90;3.08;;;9.70;99.90;;;;;;5058697;28;20049;-84
2023/10/16 11:46:28;;;;;;;7.03;2.80;;;9.80;99.90;;;;;;5042660;28;20045;-83
2023/10/16 11:49:17;;;;;;;4.43;2.60;;;9.80;99.90;;;;;;5059285;28;20046;-84
2023/10/16 11:51:58;;;;;;;5.15;2.97;;;9.80;99.90;;;;;;5044146;28;20049;-84
2023/10/16 11:54:25;;;;;;;4.20;2.53;;;9.90;99.90;;;;;;5043519;28;20101;-83
2023/10/16 11:56:55;;;;;;;4.57;2.70;;;9.90;99.90;;;;;;5055898;28;20049;-82
2023/10/16 11:59:26;;;;;;;4.35;2.72;;;10.00;99.90;;;;;;5062718;28;20053;-84
2023/10/16 12:01:53;;;;;;;6.07;2.88;;;10.00;99.90;;;;;;5040404;28;20057;-84
2023/10/16 12:04:30;;;;;;;4.72;2.75;;;10.10;99.90;;;;;;5039660;28;20125;-84
2023/10/16 12:06:59;;;;;;;7.22;2.60;;;10.10;99.90;;;;;;5055423;28;20068;-84
2023/10/16 12:09:36;;;;;;;6.50;3.05;;;10.10;99.90;;;;;;5053750;28;20506;-83
2023/10/16 12:12:06;;;;;;;6.00;2.42;;;10.10;99.90;;;;;;5056918;28;20075;-83
2023/10/16 12:14:37;;;;;;;10.48;2.97;;;10.20;99.90;;;;;;5064120;28;20075;-84
2023/10/16 12:17:11;;;;;;;3.80;2.20;;;10.20;99.90;;;;;;5060343;28;20044;-84
2023/10/16 12:19:39;;;;;;;6.90;3.72;;;10.30;99.90;;;;;;5046280;28;20045;-84
2023/10/16 12:22:08;;;;;;;6.45;2.35;;;10.40;99.90;;;;;;5055602;28;20041;-84
2023/10/16 12:24:36;;;;;;;2.67;2.00;;;10.40;99.90;;;;;;5054429;28;20045;-83
2023/10/16 12:27:03;;;;;;;3.63;2.20;;;10.40;99.90;;;;;;5066487;28;20045;-84
2023/10/16 12:29:29;;;;;;;4.78;2.53;;;10.50;99.90;;;;;;5063484;28;20045;-84
2023/10/16 12:31:58;;;;;;;3.47;2.20;;;10.60;99.90;;;;;;5041791;28;20056;-84
2023/10/16 12:34:25;;;;;;;5.28;2.25;;;10.60;99.90;;;;;;5038899;28;20043;-84
2023/10/16 12:36:52;;;;;;;6.35;2.30;;;10.60;99.90;;;;;;5039892;28;20055;-84
2023/10/16 12:39:25;;;;;;;3.35;2.10;;;10.70;99.90;;;;;;5055911;28;20060;-84
2023/10/16 12:41:57;;;;;;;3.63;2.45;;;10.70;99.90;;;;;;5067285;28;20049;-84
2023/10/16 12:44:24;;;;;;;6.95;2.78;;;10.70;99.90;;;;;;5061606;28;20048;-83
2023/10/16 12:46:53;;;;;;;4.55;2.10;;;10.80;99.90;;;;;;5058351;28;20059;-82
2023/10/16 12:49:20;;;;;;;6.32;2.22;;;10.90;99.90;;;;;;5062008;28;20036;-84
2023/10/16 12:51:49;;;;;;;4.85;2.15;;;10.90;99.90;;;;;;5055382;28;20076;-84
2023/10/16 12:54:19;;;;;;;5.60;2.10;;;10.90;99.90;;;;;;5064299;28;20068;-84
2023/10/16 12:56:48;;;;;;;2.72;1.95;;;11.00;99.90;;;;;;5044088;28;20589;-84
2023/10/16 12:59:15;;;;;;;6.85;2.22;;;11.10;99.90;;;;;;5065074;28;20111;-86
2023/10/16 13:01:41;;;;;;;5.03;2.20;;;11.10;99.90;;;;;;5058870;28;20046;-83
2023/10/16 13:04:14;;;;;;;9.82;2.47;;;11.20;99.90;;;;;;5043057;28;20098;-83
2023/10/16 13:06:43;;;;;;;4.85;2.05;;;11.20;99.90;;;;;;5042075;28;20038;-83
2023/10/16 13:09:15;;;;;;;4.15;1.70;;;11.30;99.90;;;;;;5036314;28;20044;-83
2023/10/16 13:11:43;;;;;;;5.55;1.80;;;11.30;99.90;;;;;;5062993;28;20493;-83
2023/10/16 13:14:13;;;;;;;3.25;2.13;;;11.40;99.90;;;;;;5045194;28;20051;-83
2023/10/16 13:16:41;;;;;;;3.55;1.50;;;11.40;99.90;;;;;;5054592;28;20056;-83
2023/10/16 13:19:11;;;;;;;2.72;1.65;;;11.50;99.90;;;;;;5064121;28;20056;-86
2023/10/16 13:21:38;;;;;;;4.35;1.80;;;11.50;99.90;;;;;;5039336;28;20117;-83
2023/10/16 13:24:10;;;;;;;7.55;2.05;;;11.50;99.90;;;;;;5062458;28;20168;-84
2023/10/16 13:26:38;;;;;;;7.25;1.75;;;11.50;99.90;;;;;;5062175;28;20045;-83
2023/10/16 13:29:10;;;;;;;5.07;1.85;;;11.60;99.90;;;;;;5048534;28;20045;-83
2023/10/16 13:31:41;;;;;;;6.25;1.80;;;11.60;99.90;;;;;;5055528;28;20068;-84
2023/10/16 13:34:11;;;;;;;2.90;1.08;;;11.70;99.90;;;;;;5057014;28;21369;-81
2023/10/16 13:36:38;;;;;;;5.63;1.57;;;11.70;99.90;;;;;;5050507;28;20148;-84
2023/10/16 13:39:09;;;;;;;4.97;1.73;;;11.70;99.90;;;;;;5065668;28;20077;-83
2023/10/16 13:41:50;;;;;;;;;;;11.80;99.90;;;;;;5045421;28;20045;-85
2023/10/16 13:44:24;;;;;;;4.28;1.42;;;11.80;99.90;;;;;;5062375;28;20287;-84
2023/10/16 13:46:53;;;;;;;4.22;1.83;;;11.80;99.90;;;;;;5052644;28;20049;-84
2023/10/16 13:49:22;;;;;;;3.42;1.27;;;11.80;99.90;;;;;;5056071;28;20045;-84
2023/10/16 13:51:49;;;;;;;5.57;2.33;;;11.90;99.90;;;;;;5049040;28;20038;-84
2023/10/16 13:54:16;;;;;;;4.47;1.38;;;11.90;99.90;;;;;;5058612;28;20123;-83
2023/10/16 13:56:47;;;;;;;4.38;1.50;;;11.90;99.90;;;;;;5057069;28;20049;-85
2023/10/16 13:59:15;;;;;;;4.25;1.55;;;12.00;99.90;;;;;;5059408;28;20052;-83
2023/10/16 14:01:43;;;;;;;9.70;1.80;;;12.00;99.90;;;;;;5055509;28;20073;-84
2023/10/16 14:04:14;;;;;;;6.30;1.25;;;12.00;99.90;;;;;;5057071;28;20072;-83
2023/10/16 14:06:52;;;;;;;3.28;1.00;;;12.00;99.90;;;;;;5060463;28;20543;-84
2023/10/16 14:09:29;;;;;;;4.57;1.25;;;12.10;99.90;;;;;;5043137;28;20074;-83
2023/10/16 14:11:59;;;;;;;3.08;1.50;;;12.10;99.90;;;;;;5058081;28;20045;-85
2023/10/16 14:14:28;;;;;;;4.80;1.25;;;12.10;99.90;;;;;;5040982;28;20061;-83
2023/10/16 14:17:03;;;;;;;3.88;1.00;;;12.10;99.90;;;;;;5045744;28;20049;-84
2023/10/16 14:19:32;;;;;;;2.50;1.38;;;12.20;99.90;;;;;;5061834;28;20052;-84
2023/10/16 14:22:01;;;;;;;3.40;0.82;;;12.20;99.90;;;;;;5055943;28;20054;-83
2023/10/16 14:24:29;;;;;;;2.53;1.40;;;12.20;99.90;;;;;;5056010;28;20049;-84
2023/10/16 14:26:58;;;;;;;1.80;1.00;;;12.20;99.90;;;;;;5040326;28;20052;-84
2023/10/16 14:29:26;;;;;;;2.35;0.98;;;12.30;99.90;;;;;;5057311;28;20097;-84
2023/10/16 14:31:58;;;;;;;2.15;0.93;;;12.30;99.90;;;;;;5051333;28;20049;-83
2023/10/16 14:34:26;;;;;;;2.33;1.25;;;12.30;99.90;;;;;;5036384;28;20045;-84
2023/10/16 14:36:55;;;;;;;4.22;1.98;;;12.40;99.90;;;;;;5063213;28;20056;-84
2023/10/16 14:39:29;;;;;;;2.03;1.00;;;12.50;99.90;;;;;;5063878;28;20071;-84
2023/10/16 14:41:57;;;;;;;3.28;1.13;;;12.50;99.90;;;;;;5053585;28;20061;-84
2023/10/16 14:44:24;;;;;;;5.25;1.10;;;12.50;99.90;;;;;;5051568;28;20049;-84
2023/10/16 14:46:59;;;;;;;2.47;1.10;;;12.50;99.90;;;;;;5044836;28;20046;-83